sensor_id;sensor_type;location;lat;lon;timestamp;temperature;humidity
6178;DHT22;3122;48.208;11.174;2022-09-02T00:04:20;12.70;1.00
6178;DHT22;3122;48.208;11.174;2022-09-02T00:09:24;12.70;1.00
6178;DHT22;3122;48.208;11.174;2022-09-02T00:14:28;12.60;1.00
6178;DHT22;3122;48.208;11.174;2022-09-02T00:19:30;12.70;1.00
6178;DHT22;3122;48.208;11.174;2022-09-02T00:24:30;12.70;1.00
6178;DHT22;3122;48.208;11.174;2022-09-02T00:29:31;12.70;1.00
6178;DHT22;3122;48.208;11.174;2022-09-02T00:34:32;12.70;1.00
6178;DHT22;3122;48.208;11.174;2022-09-02T00:39:32;12.60;1.00
6178;DHT22;3122;48.208;11.174;2022-09-02T00:44:33;12.50;1.00
6178;DHT22;3122;48.208;11.174;2022-09-02T00:49:37;12.50;1.00
6178;DHT22;3122;48.208;11.174;2022-09-02T00:54:43;12.40;1.00
6178;DHT22;3122;48.208;11.174;2022-09-02T00:59:56;12.40;1.00
6178;DHT22;3122;48.208;11.174;2022-09-02T01:05:00;12.30;1.00
6178;DHT22;3122;48.208;11.174;2022-09-02T01:10:04;12.30;1.00
6178;DHT22;3122;48.208;11.174;2022-09-02T01:15:08;12.30;1.00
6178;DHT22;3122;48.208;11.174;2022-09-02T01:20:11;12.20;1.00
6178;DHT22;3122;48.208;11.174;2022-09-02T01:25:18;12.10;1.00
6178;DHT22;3122;48.208;11.174;2022-09-02T01:30:22;12.10;1.00
6178;DHT22;3122;48.208;11.174;2022-09-02T01:35:23;12.10;1.00
6178;DHT22;3122;48.208;11.174;2022-09-02T01:40:26;11.90;1.00
6178;DHT22;3122;48.208;11.174;2022-09-02T01:45:27;11.70;1.00
6178;DHT22;3122;48.208;11.174;2022-09-02T01:50:29;11.80;1.00
6178;DHT22;3122;48.208;11.174;2022-09-02T01:55:31;11.80;1.00
6178;DHT22;3122;48.208;11.174;2022-09-02T02:00:32;11.80;1.00
6178;DHT22;3122;48.208;11.174;2022-09-02T02:05:33;11.90;1.00
6178;DHT22;3122;48.208;11.174;2022-09-02T02:10:35;11.90;1.00
6178;DHT22;3122;48.208;11.174;2022-09-02T02:15:37;11.80;1.00
6178;DHT22;3122;48.208;11.174;2022-09-02T02:20:38;11.80;1.00
6178;DHT22;3122;48.208;11.174;2022-09-02T02:25:39;11.80;1.00
6178;DHT22;3122;48.208;11.174;2022-09-02T02:30:40;11.70;1.00
6178;DHT22;3122;48.208;11.174;2022-09-02T02:35:42;11.60;1.00
6178;DHT22;3122;48.208;11.174;2022-09-02T02:40:42;11.60;1.00
6178;DHT22;3122;48.208;11.174;2022-09-02T02:45:43;11.60;1.00
6178;DHT22;3122;48.208;11.174;2022-09-02T02:50:43;11.70;1.00
6178;DHT22;3122;48.208;11.174;2022-09-02T02:55:45;11.60;1.00
6178;DHT22;3122;48.208;11.174;2022-09-02T03:00:45;11.40;1.00
6178;DHT22;3122;48.208;11.174;2022-09-02T03:05:46;11.50;1.00
6178;DHT22;3122;48.208;11.174;2022-09-02T03:10:48;11.60;1.00
6178;DHT22;3122;48.208;11.174;2022-09-02T03:15:53;11.60;1.00
6178;DHT22;3122;48.208;11.174;2022-09-02T03:20:54;11.50;1.00
6178;DHT22;3122;48.208;11.174;2022-09-02T03:25:54;11.40;1.00
6178;DHT22;3122;48.208;11.174;2022-09-02T03:30:55;11.40;1.00
6178;DHT22;3122;48.208;11.174;2022-09-02T03:35:56;11.30;1.00
6178;DHT22;3122;48.208;11.174;2022-09-02T03:40:56;11.30;1.00
6178;DHT22;3122;48.208;11.174;2022-09-02T03:45:57;11.20;1.00
6178;DHT22;3122;48.208;11.174;2022-09-02T03:50:57;11.20;1.00
6178;DHT22;3122;48.208;11.174;2022-09-02T03:56:04;11.20;1.00
6178;DHT22;3122;48.208;11.174;2022-09-02T04:01:05;11.10;1.00
6178;DHT22;3122;48.208;11.174;2022-09-02T04:06:08;11.10;1.00
6178;DHT22;3122;48.208;11.174;2022-09-02T04:11:18;11.00;1.00
6178;DHT22;3122;48.208;11.174;2022-09-02T04:16:22;11.10;1.00
6178;DHT22;3122;48.208;11.174;2022-09-02T04:21:30;11.00;1.00
6178;DHT22;3122;48.208;11.174;2022-09-02T04:26:32;11.00;1.00
6178;DHT22;3122;48.208;11.174;2022-09-02T04:31:32;11.00;1.00
6178;DHT22;3122;48.208;11.174;2022-09-02T04:36:33;11.00;1.00
6178;DHT22;3122;48.208;11.174;2022-09-02T04:41:34;11.00;1.00
6178;DHT22;3122;48.208;11.174;2022-09-02T04:46:35;10.90;1.00
6178;DHT22;3122;48.208;11.174;2022-09-02T04:51:36;10.90;1.00
6178;DHT22;3122;48.208;11.174;2022-09-02T04:56:37;10.90;1.00
6178;DHT22;3122;48.208;11.174;2022-09-02T05:01:37;11.00;1.00
6178;DHT22;3122;48.208;11.174;2022-09-02T05:06:38;11.00;1.00
6178;DHT22;3122;48.208;11.174;2022-09-02T05:11:39;10.90;1.00
6178;DHT22;3122;48.208;11.174;2022-09-02T05:16:39;11.00;1.00
6178;DHT22;3122;48.208;11.174;2022-09-02T05:21:43;11.10;1.00
6178;DHT22;3122;48.208;11.174;2022-09-02T05:26:43;11.00;1.00
6178;DHT22;3122;48.208;11.174;2022-09-02T05:31:44;11.00;1.00
6178;DHT22;3122;48.208;11.174;2022-09-02T05:36:45;11.10;1.00
6178;DHT22;3122;48.208;11.174;2022-09-02T05:41:45;11.20;1.00
6178;DHT22;3122;48.208;11.174;2022-09-02T05:46:46;11.20;1.00
6178;DHT22;3122;48.208;11.174;2022-09-02T05:51:55;11.20;1.00
6178;DHT22;3122;48.208;11.174;2022-09-02T05:57:01;11.40;1.00
6178;DHT22;3122;48.208;11.174;2022-09-02T06:02:02;11.50;1.00
6178;DHT22;3122;48.208;11.174;2022-09-02T06:07:02;11.60;1.00
6178;DHT22;3122;48.208;11.174;2022-09-02T06:12:03;11.60;1.00
6178;DHT22;3122;48.208;11.174;2022-09-02T06:17:05;11.70;1.00
6178;DHT22;3122;48.208;11.174;2022-09-02T06:22:06;11.90;1.00
6178;DHT22;3122;48.208;11.174;2022-09-02T06:27:06;12.00;1.00
6178;DHT22;3122;48.208;11.174;2022-09-02T06:32:07;12.10;1.00
6178;DHT22;3122;48.208;11.174;2022-09-02T06:37:07;12.30;1.00
6178;DHT22;3122;48.208;11.174;2022-09-02T06:42:08;12.30;1.00
6178;DHT22;3122;48.208;11.174;2022-09-02T06:47:08;12.50;1.00
6178;DHT22;3122;48.208;11.174;2022-09-02T06:52:12;12.60;1.00
6178;DHT22;3122;48.208;11.174;2022-09-02T06:57:13;12.70;1.00
6178;DHT22;3122;48.208;11.174;2022-09-02T07:02:14;12.80;1.00
6178;DHT22;3122;48.208;11.174;2022-09-02T07:07:14;12.90;1.00
6178;DHT22;3122;48.208;11.174;2022-09-02T07:12:15;13.10;1.00
6178;DHT22;3122;48.208;11.174;2022-09-02T07:17:16;13.30;1.00
6178;DHT22;3122;48.208;11.174;2022-09-02T07:22:17;13.50;1.00
6178;DHT22;3122;48.208;11.174;2022-09-02T07:27:18;13.60;1.00
6178;DHT22;3122;48.208;11.174;2022-09-02T07:32:21;13.70;1.00
6178;DHT22;3122;48.208;11.174;2022-09-02T07:37:22;13.80;1.00
6178;DHT22;3122;48.208;11.174;2022-09-02T07:42:23;13.90;1.00
6178;DHT22;3122;48.208;11.174;2022-09-02T07:47:23;14.10;1.00
6178;DHT22;3122;48.208;11.174;2022-09-02T07:52:24;14.20;1.00
6178;DHT22;3122;48.208;11.174;2022-09-02T07:57:25;14.30;1.00
6178;DHT22;3122;48.208;11.174;2022-09-02T08:02:25;14.40;1.00
6178;DHT22;3122;48.208;11.174;2022-09-02T08:07:26;14.40;1.00
6178;DHT22;3122;48.208;11.174;2022-09-02T08:12:27;14.70;1.00
6178;DHT22;3122;48.208;11.174;2022-09-02T08:17:28;14.80;1.00
6178;DHT22;3122;48.208;11.174;2022-09-02T08:22:35;14.90;1.00
6178;DHT22;3122;48.208;11.174;2022-09-02T08:27:37;15.00;1.00
6178;DHT22;3122;48.208;11.174;2022-09-02T08:32:38;15.20;1.00
6178;DHT22;3122;48.208;11.174;2022-09-02T08:37:39;15.50;1.00
6178;DHT22;3122;48.208;11.174;2022-09-02T08:47:42;15.80;1.00
6178;DHT22;3122;48.208;11.174;2022-09-02T08:53:28;16.00;1.00
6178;DHT22;3122;48.208;11.174;2022-09-02T08:58:28;16.10;1.00
6178;DHT22;3122;48.208;11.174;2022-09-02T09:10:03;16.50;1.00
6178;DHT22;3122;48.208;11.174;2022-09-02T09:14:57;16.70;1.00
6178;DHT22;3122;48.208;11.174;2022-09-02T09:20:17;17.00;1.00
6178;DHT22;3122;48.208;11.174;2022-09-02T09:25:19;17.10;1.00
6178;DHT22;3122;48.208;11.174;2022-09-02T09:30:19;17.30;1.00
6178;DHT22;3122;48.208;11.174;2022-09-02T09:35:20;17.50;1.00
6178;DHT22;3122;48.208;11.174;2022-09-02T09:40:27;17.30;1.00
6178;DHT22;3122;48.208;11.174;2022-09-02T09:45:38;17.50;1.00
6178;DHT22;3122;48.208;11.174;2022-09-02T09:50:39;17.60;1.00
6178;DHT22;3122;48.208;11.174;2022-09-02T09:55:58;17.70;1.00
6178;DHT22;3122;48.208;11.174;2022-09-02T10:33:27;18.50;1.00
6178;DHT22;3122;48.208;11.174;2022-09-02T10:38:42;18.60;1.00
6178;DHT22;3122;48.208;11.174;2022-09-02T10:43:58;18.70;1.00
6178;DHT22;3122;48.208;11.174;2022-09-02T11:00:09;18.90;1.00
6178;DHT22;3122;48.208;11.174;2022-09-02T11:05:42;19.00;1.00
6178;DHT22;3122;48.208;11.174;2022-09-02T11:16:20;19.10;1.00
6178;DHT22;3122;48.208;11.174;2022-09-02T11:22:12;19.20;1.00
6178;DHT22;3122;48.208;11.174;2022-09-02T11:27:24;19.30;1.00
6178;DHT22;3122;48.208;11.174;2022-09-02T11:32:37;19.10;1.00
6178;DHT22;3122;48.208;11.174;2022-09-02T11:53:24;19.30;1.00
6178;DHT22;3122;48.208;11.174;2022-09-02T11:58:47;19.40;1.00
6178;DHT22;3122;48.208;11.174;2022-09-02T12:09:01;19.50;1.00
6178;DHT22;3122;48.208;11.174;2022-09-02T12:14:04;19.60;1.00
6178;DHT22;3122;48.208;11.174;2022-09-02T12:24:09;19.60;1.00
6178;DHT22;3122;48.208;11.174;2022-09-02T12:55:19;19.90;1.00
6178;DHT22;3122;48.208;11.174;2022-09-02T13:11:05;19.90;1.00
6178;DHT22;3122;48.208;11.174;2022-09-02T13:16:38;20.00;1.00
6178;DHT22;3122;48.208;11.174;2022-09-02T13:27:26;20.00;1.00
6178;DHT22;3122;48.208;11.174;2022-09-02T13:32:32;20.00;1.00
6178;DHT22;3122;48.208;11.174;2022-09-02T13:42:35;20.00;1.00
6178;DHT22;3122;48.208;11.174;2022-09-02T13:47:36;20.10;1.00
6178;DHT22;3122;48.208;11.174;2022-09-02T13:52:37;20.10;1.00
6178;DHT22;3122;48.208;11.174;2022-09-02T13:57:44;20.00;1.00
6178;DHT22;3122;48.208;11.174;2022-09-02T14:02:55;20.00;1.00
6178;DHT22;3122;48.208;11.174;2022-09-02T14:07:59;20.10;1.00
6178;DHT22;3122;48.208;11.174;2022-09-02T14:13:02;20.10;1.00
6178;DHT22;3122;48.208;11.174;2022-09-02T14:18:18;20.30;1.00
6178;DHT22;3122;48.208;11.174;2022-09-02T14:23:19;20.20;1.00
6178;DHT22;3122;48.208;11.174;2022-09-02T14:28:22;20.20;1.00
6178;DHT22;3122;48.208;11.174;2022-09-02T14:33:43;20.30;1.00
6178;DHT22;3122;48.208;11.174;2022-09-02T14:43:58;20.30;1.00
6178;DHT22;3122;48.208;11.174;2022-09-02T14:49:07;20.30;1.00
6178;DHT22;3122;48.208;11.174;2022-09-02T14:54:08;20.20;1.00
6178;DHT22;3122;48.208;11.174;2022-09-02T14:59:09;20.30;1.00
6178;DHT22;3122;48.208;11.174;2022-09-02T15:04:09;20.30;1.00
6178;DHT22;3122;48.208;11.174;2022-09-02T15:09:11;20.40;1.00
6178;DHT22;3122;48.208;11.174;2022-09-02T15:14:11;20.40;1.00
6178;DHT22;3122;48.208;11.174;2022-09-02T15:19:12;20.60;1.00
6178;DHT22;3122;48.208;11.174;2022-09-02T15:24:12;20.60;1.00
6178;DHT22;3122;48.208;11.174;2022-09-02T15:29:13;20.60;1.00
6178;DHT22;3122;48.208;11.174;2022-09-02T15:34:14;20.70;1.00
6178;DHT22;3122;48.208;11.174;2022-09-02T15:39:15;20.90;1.00
6178;DHT22;3122;48.208;11.174;2022-09-02T15:44:16;21.40;1.00
6178;DHT22;3122;48.208;11.174;2022-09-02T15:49:18;21.60;1.00
6178;DHT22;3122;48.208;11.174;2022-09-02T15:54:21;21.50;1.00
6178;DHT22;3122;48.208;11.174;2022-09-02T15:59:22;21.70;1.00
6178;DHT22;3122;48.208;11.174;2022-09-02T16:04:23;21.60;1.00
6178;DHT22;3122;48.208;11.174;2022-09-02T16:09:24;21.70;1.00
6178;DHT22;3122;48.208;11.174;2022-09-02T16:14:25;21.60;1.00
6178;DHT22;3122;48.208;11.174;2022-09-02T16:19:26;21.90;1.00
6178;DHT22;3122;48.208;11.174;2022-09-02T16:24:27;22.30;1.00
6178;DHT22;3122;48.208;11.174;2022-09-02T16:29:28;22.10;1.00
6178;DHT22;3122;48.208;11.174;2022-09-02T16:34:30;22.10;1.00
6178;DHT22;3122;48.208;11.174;2022-09-02T16:39:30;22.10;1.00
6178;DHT22;3122;48.208;11.174;2022-09-02T16:44:31;21.60;1.00
6178;DHT22;3122;48.208;11.174;2022-09-02T16:49:33;21.00;1.00
6178;DHT22;3122;48.208;11.174;2022-09-02T16:54:34;21.40;1.00
6178;DHT22;3122;48.208;11.174;2022-09-02T16:59:34;21.80;1.00
6178;DHT22;3122;48.208;11.174;2022-09-02T17:04:35;21.80;1.00
6178;DHT22;3122;48.208;11.174;2022-09-02T17:09:36;21.30;1.00
6178;DHT22;3122;48.208;11.174;2022-09-02T17:14:37;20.50;1.00
6178;DHT22;3122;48.208;11.174;2022-09-02T17:19:37;20.10;1.00
6178;DHT22;3122;48.208;11.174;2022-09-02T17:24:38;19.80;1.00
6178;DHT22;3122;48.208;11.174;2022-09-02T17:29:41;19.50;1.00
6178;DHT22;3122;48.208;11.174;2022-09-02T17:34:42;19.00;1.00
6178;DHT22;3122;48.208;11.174;2022-09-02T17:39:42;18.80;1.00
6178;DHT22;3122;48.208;11.174;2022-09-02T17:44:43;18.60;1.00
6178;DHT22;3122;48.208;11.174;2022-09-02T17:49:44;18.40;1.00
6178;DHT22;3122;48.208;11.174;2022-09-02T17:54:47;18.10;1.00
6178;DHT22;3122;48.208;11.174;2022-09-02T18:00:11;18.20;1.00
6178;DHT22;3122;48.208;11.174;2022-09-02T18:10:21;17.80;1.00
6178;DHT22;3122;48.208;11.174;2022-09-02T18:15:22;17.60;1.00
6178;DHT22;3122;48.208;11.174;2022-09-02T18:31:06;17.40;1.00
6178;DHT22;3122;48.208;11.174;2022-09-02T18:36:34;17.20;1.00
6178;DHT22;3122;48.208;11.174;2022-09-02T18:47:01;17.00;1.00
6178;DHT22;3122;48.208;11.174;2022-09-02T18:52:07;16.70;1.00
6178;DHT22;3122;48.208;11.174;2022-09-02T18:57:09;16.80;1.00
6178;DHT22;3122;48.208;11.174;2022-09-02T19:03:14;16.90;1.00
6178;DHT22;3122;48.208;11.174;2022-09-02T19:08:03;16.90;1.00
6178;DHT22;3122;48.208;11.174;2022-09-02T19:13:23;16.70;1.00
6178;DHT22;3122;48.208;11.174;2022-09-02T19:18:23;16.60;1.00
6178;DHT22;3122;48.208;11.174;2022-09-02T19:23:26;16.20;1.00
6178;DHT22;3122;48.208;11.174;2022-09-02T19:28:27;16.40;1.00
6178;DHT22;3122;48.208;11.174;2022-09-02T19:33:29;16.20;1.00
6178;DHT22;3122;48.208;11.174;2022-09-02T19:38:31;16.30;1.00
6178;DHT22;3122;48.208;11.174;2022-09-02T19:43:31;16.20;1.00
6178;DHT22;3122;48.208;11.174;2022-09-02T19:48:32;16.20;1.00
6178;DHT22;3122;48.208;11.174;2022-09-02T19:53:35;16.10;1.00
6178;DHT22;3122;48.208;11.174;2022-09-02T19:58:38;16.10;1.00
6178;DHT22;3122;48.208;11.174;2022-09-02T20:03:39;16.00;1.00
6178;DHT22;3122;48.208;11.174;2022-09-02T20:08:39;15.90;1.00
6178;DHT22;3122;48.208;11.174;2022-09-02T20:13:40;15.90;1.00
6178;DHT22;3122;48.208;11.174;2022-09-02T20:18:41;15.80;1.00
6178;DHT22;3122;48.208;11.174;2022-09-02T20:23:45;15.50;1.00
6178;DHT22;3122;48.208;11.174;2022-09-02T20:39:41;15.20;1.00
6178;DHT22;3122;48.208;11.174;2022-09-02T20:50:20;15.10;1.00
6178;DHT22;3122;48.208;11.174;2022-09-02T20:55:48;15.10;1.00
6178;DHT22;3122;48.208;11.174;2022-09-02T21:01:06;15.10;1.00
6178;DHT22;3122;48.208;11.174;2022-09-02T21:06:09;14.90;1.00
6178;DHT22;3122;48.208;11.174;2022-09-02T21:11:13;14.90;1.00
6178;DHT22;3122;48.208;11.174;2022-09-02T21:16:27;15.00;1.00
6178;DHT22;3122;48.208;11.174;2022-09-02T21:21:47;15.00;1.00
6178;DHT22;3122;48.208;11.174;2022-09-02T21:26:58;15.00;1.00
6178;DHT22;3122;48.208;11.174;2022-09-02T21:32:17;14.90;1.00
6178;DHT22;3122;48.208;11.174;2022-09-02T21:37:20;14.80;1.00
6178;DHT22;3122;48.208;11.174;2022-09-02T21:47:56;14.50;1.00
6178;DHT22;3122;48.208;11.174;2022-09-02T21:53:21;14.50;1.00
6178;DHT22;3122;48.208;11.174;2022-09-02T22:09:27;14.60;1.00
6178;DHT22;3122;48.208;11.174;2022-09-02T22:14:52;14.70;1.00
6178;DHT22;3122;48.208;11.174;2022-09-02T22:19:58;14.70;1.00
6178;DHT22;3122;48.208;11.174;2022-09-02T22:25:02;14.60;1.00
6178;DHT22;3122;48.208;11.174;2022-09-02T22:30:09;14.40;1.00
6178;DHT22;3122;48.208;11.174;2022-09-02T22:35:26;14.30;1.00
6178;DHT22;3122;48.208;11.174;2022-09-02T22:40:32;14.40;1.00
6178;DHT22;3122;48.208;11.174;2022-09-02T22:45:38;14.30;1.00
6178;DHT22;3122;48.208;11.174;2022-09-02T22:51:07;14.20;1.00
6178;DHT22;3122;48.208;11.174;2022-09-02T22:56:33;14.20;1.00
6178;DHT22;3122;48.208;11.174;2022-09-02T23:01:54;14.10;1.00
6178;DHT22;3122;48.208;11.174;2022-09-02T23:06:56;14.10;1.00
6178;DHT22;3122;48.208;11.174;2022-09-02T23:17:36;14.10;1.00
6178;DHT22;3122;48.208;11.174;2022-09-02T23:23:15;14.10;1.00
6178;DHT22;3122;48.208;11.174;2022-09-02T23:28:53;14.10;1.00
6178;DHT22;3122;48.208;11.174;2022-09-02T23:44:43;14.20;1.00
